Time;durP1;ratioP1;P1;durP2;ratioP2;P2;SDS_P1;SDS_P2;PMS_P1;PMS_P2;Temp;Humidity;BMP_temperature;BMP_pressure;BME280_temperature;BME280_humidity;BME280_pressure;Samples;Min_cycle;Max_cycle;Signal;HPM_P1;HPM_P2
2020/12/21 00:01:18;;;;;;;66.07;32.43;;;;;;;;;;5010595;28;20232;-79
2020/12/21 00:03:44;;;;;;;78.13;38.93;;;;;;;;;;5010710;28;20173;-79
2020/12/21 00:06:10;;;;;;;80.00;38.00;;;;;;;;;;5010250;28;20181;-79
2020/12/21 00:08:35;;;;;;;68.07;34.63;;;;;;;;;;5010983;28;20181;-78
2020/12/21 00:11:01;;;;;;;74.23;39.90;;;;;;;;;;5010332;28;20173;-79
2020/12/21 00:13:28;;;;;;;69.47;35.43;;;;;;;;;;5010849;28;20241;-78
2020/12/21 00:15:53;;;;;;;89.53;42.70;;;;;;;;;;5010118;28;21009;-78
2020/12/21 00:18:18;;;;;;;100.70;45.13;;;;;;;;;;5011444;28;20231;-78
2020/12/21 00:20:44;;;;;;;65.50;32.13;;;;;;;;;;5013919;28;20173;-77
2020/12/21 00:23:09;;;;;;;62.47;31.60;;;;;;;;;;5014440;28;20196;-78
2020/12/21 00:25:34;;;;;;;64.50;32.77;;;;;;;;;;5014668;28;20274;-77
2020/12/21 00:28:00;;;;;;;84.40;42.23;;;;;;;;;;5006004;28;20275;-79
2020/12/21 00:30:25;;;;;;;61.73;30.63;;;;;;;;;;4994375;28;20637;-78
2020/12/21 00:32:50;;;;;;;79.83;39.60;;;;;;;;;;4994540;28;20529;-78
2020/12/21 00:35:16;;;;;;;77.83;38.27;;;;;;;;;;4994041;28;20268;-79
2020/12/21 00:37:41;;;;;;;77.50;39.23;;;;;;;;;;4994013;28;20169;-78
2020/12/21 00:40:06;;;;;;;50.27;26.73;;;;;;;;;;4994548;28;20178;-79
2020/12/21 00:42:32;;;;;;;65.70;32.40;;;;;;;;;;4994404;28;20631;-77
2020/12/21 00:44:57;;;;;;;70.60;37.93;;;;;;;;;;4994250;28;20177;-78
2020/12/21 00:47:22;;;;;;;81.47;41.67;;;;;;;;;;4993985;28;20185;-78
2020/12/21 00:49:48;;;;;;;72.50;39.23;;;;;;;;;;4993972;28;20223;-78
2020/12/21 00:52:13;;;;;;;70.37;37.70;;;;;;;;;;4994169;28;20633;-78
2020/12/21 00:54:38;;;;;;;68.70;38.30;;;;;;;;;;4994002;28;20260;-79
2020/12/21 00:57:04;;;;;;;51.80;26.30;;;;;;;;;;4992270;28;20185;-78
2020/12/21 00:59:29;;;;;;;57.27;32.43;;;;;;;;;;4992978;28;20712;-78
2020/12/21 01:01:55;;;;;;;56.90;30.17;;;;;;;;;;4994020;28;20554;-78
2020/12/21 01:04:21;;;;;;;49.80;24.80;;;;;;;;;;4993373;28;20273;-78
2020/12/21 01:06:52;;;;;;;58.93;30.70;;;;;;;;;;4992316;28;20170;-79
2020/12/21 01:09:17;;;;;;;57.80;31.80;;;;;;;;;;4992064;28;20158;-79
2020/12/21 01:11:42;;;;;;;63.40;35.20;;;;;;;;;;4992076;28;20640;-82
2020/12/21 01:14:08;;;;;;;67.77;38.40;;;;;;;;;;4992214;28;20537;-79
2020/12/21 01:16:33;;;;;;;64.03;36.60;;;;;;;;;;4990886;28;20269;-79
2020/12/21 01:18:58;;;;;;;55.50;30.70;;;;;;;;;;4991877;28;20182;-79
2020/12/21 01:21:25;;;;;;;68.70;38.63;;;;;;;;;;4993477;28;20170;-79
2020/12/21 01:23:51;;;;;;;64.37;36.50;;;;;;;;;;4993691;28;20178;-79
2020/12/21 01:26:16;;;;;;;71.33;40.63;;;;;;;;;;4993700;28;20174;-79
2020/12/21 01:28:42;;;;;;;69.43;35.80;;;;;;;;;;4994039;28;20181;-79
2020/12/21 01:31:07;;;;;;;55.43;28.70;;;;;;;;;;4992829;28;20202;-80
2020/12/21 01:33:32;;;;;;;55.53;29.97;;;;;;;;;;4993603;28;20170;-78
2020/12/21 01:35:58;;;;;;;51.77;26.83;;;;;;;;;;4993462;28;20648;-78
2020/12/21 01:38:23;;;;;;;56.27;29.77;;;;;;;;;;4993436;28;20529;-79
2020/12/21 01:40:48;;;;;;;57.13;29.83;;;;;;;;;;4993907;28;20180;-79
2020/12/21 01:43:14;;;;;;;64.33;33.33;;;;;;;;;;4993670;28;20177;-80
2020/12/21 01:45:39;;;;;;;58.63;28.23;;;;;;;;;;4993256;28;20182;-79
2020/12/21 01:48:05;;;;;;;55.17;28.80;;;;;;;;;;4992895;28;21131;-79
2020/12/21 01:50:30;;;;;;;52.53;28.13;;;;;;;;;;4992856;28;20510;-79
2020/12/21 01:52:56;;;;;;;49.47;25.23;;;;;;;;;;4993033;28;20185;-79
2020/12/21 01:55:22;;;;;;;50.20;26.63;;;;;;;;;;4992866;28;20213;-79
2020/12/21 01:57:48;;;;;;;56.03;26.30;;;;;;;;;;4993025;28;20326;-79
2020/12/21 02:00:13;;;;;;;50.13;25.87;;;;;;;;;;4992923;28;20316;-79
2020/12/21 02:02:38;;;;;;;50.93;28.17;;;;;;;;;;4993117;28;20190;-80
2020/12/21 02:05:04;;;;;;;54.40;27.03;;;;;;;;;;4993246;28;20182;-78
2020/12/21 02:07:29;;;;;;;50.23;24.63;;;;;;;;;;5005643;28;20245;-79
2020/12/21 02:09:55;;;;;;;59.23;28.17;;;;;;;;;;5011374;28;20169;-77
2020/12/21 02:12:21;;;;;;;55.53;28.30;;;;;;;;;;4999925;28;20583;-78
2020/12/21 02:14:46;;;;;;;53.13;27.17;;;;;;;;;;4994475;28;20233;-78
2020/12/21 02:17:11;;;;;;;49.13;25.40;;;;;;;;;;4992498;28;20265;-78
2020/12/21 02:19:37;;;;;;;54.37;29.90;;;;;;;;;;4992394;28;20169;-78
2020/12/21 02:22:02;;;;;;;55.93;30.50;;;;;;;;;;4992313;28;20170;-78
2020/12/21 02:24:27;;;;;;;51.07;24.90;;;;;;;;;;4992555;28;20202;-78
2020/12/21 02:26:53;;;;;;;49.80;26.20;;;;;;;;;;4992356;28;20166;-78
2020/12/21 02:29:18;;;;;;;52.53;25.83;;;;;;;;;;4992029;28;20169;-78
2020/12/21 02:31:44;;;;;;;51.10;26.10;;;;;;;;;;4992346;28;20180;-78
2020/12/21 02:34:09;;;;;;;46.43;26.00;;;;;;;;;;4992769;28;20289;-78
2020/12/21 02:36:34;;;;;;;43.43;24.70;;;;;;;;;;4992324;28;20174;-78
2020/12/21 02:39:00;;;;;;;46.27;24.77;;;;;;;;;;4992021;28;20216;-79
2020/12/21 02:41:25;;;;;;;48.90;26.33;;;;;;;;;;4992003;28;20220;-79
2020/12/21 02:43:50;;;;;;;49.63;25.27;;;;;;;;;;4992418;28;20591;-81
2020/12/21 02:46:16;;;;;;;54.10;28.33;;;;;;;;;;4992508;28;20202;-79
2020/12/21 02:48:42;;;;;;;45.90;24.87;;;;;;;;;;4992150;28;20178;-79
2020/12/21 02:51:07;;;;;;;45.80;24.07;;;;;;;;;;4992083;28;20177;-78
2020/12/21 02:53:33;;;;;;;52.43;25.07;;;;;;;;;;4991926;28;20239;-78
2020/12/21 02:55:58;;;;;;;44.57;24.43;;;;;;;;;;4992080;28;20217;-79
2020/12/21 02:58:24;;;;;;;41.73;22.47;;;;;;;;;;4992305;28;20178;-78
2020/12/21 03:00:49;;;;;;;46.43;24.57;;;;;;;;;;4991661;28;20226;-78
2020/12/21 03:03:14;;;;;;;44.47;23.50;;;;;;;;;;4991803;28;20199;-79
2020/12/21 03:05:40;;;;;;;41.53;22.90;;;;;;;;;;4991766;28;20174;-78
2020/12/21 03:08:06;;;;;;;44.63;22.87;;;;;;;;;;4991619;28;20181;-79
2020/12/21 03:10:32;;;;;;;43.63;23.63;;;;;;;;;;4991647;28;20181;-79
2020/12/21 03:12:58;;;;;;;38.10;21.77;;;;;;;;;;4991872;28;20316;-79
2020/12/21 03:15:24;;;;;;;39.67;22.27;;;;;;;;;;4991584;28;20209;-79
2020/12/21 03:17:50;;;;;;;40.83;21.07;;;;;;;;;;4991791;28;20174;-79
2020/12/21 03:20:15;;;;;;;39.27;21.20;;;;;;;;;;4992158;28;20191;-78
2020/12/21 03:22:40;;;;;;;38.83;21.67;;;;;;;;;;4991937;28;20659;-79
2020/12/21 03:25:06;;;;;;;39.90;22.27;;;;;;;;;;4991687;28;20700;-79
2020/12/21 03:27:31;;;;;;;40.33;22.03;;;;;;;;;;4991662;28;20573;-78
2020/12/21 03:29:57;;;;;;;36.73;21.40;;;;;;;;;;4992060;28;20181;-79
2020/12/21 03:32:22;;;;;;;43.30;22.17;;;;;;;;;;4991757;28;20609;-80
2020/12/21 03:34:48;;;;;;;40.17;22.37;;;;;;;;;;4991802;28;20233;-78
2020/12/21 03:37:13;;;;;;;41.77;23.53;;;;;;;;;;4991704;28;20181;-79
2020/12/21 03:39:39;;;;;;;41.87;22.40;;;;;;;;;;4991642;28;20261;-78
2020/12/21 03:42:04;;;;;;;42.03;21.87;;;;;;;;;;4991496;28;20220;-78
2020/12/21 03:44:30;;;;;;;44.43;24.07;;;;;;;;;;4991269;28;20178;-79
2020/12/21 03:46:55;;;;;;;46.87;24.00;;;;;;;;;;4991185;28;20185;-80
2020/12/21 03:49:20;;;;;;;40.40;22.87;;;;;;;;;;4990995;28;20651;-78
2020/12/21 03:51:46;;;;;;;42.90;23.10;;;;;;;;;;4990946;28;20188;-78
2020/12/21 03:54:11;;;;;;;40.87;22.47;;;;;;;;;;4993608;28;20213;-78
2020/12/21 03:56:40;;;;;;;40.33;21.87;;;;;;;;;;4994875;28;20532;-78
2020/12/21 03:59:06;;;;;;;43.33;25.43;;;;;;;;;;4995235;28;20184;-78
2020/12/21 04:01:31;;;;;;;44.97;26.77;;;;;;;;;;4995317;28;20241;-78
2020/12/21 04:03:56;;;;;;;53.63;31.17;;;;;;;;;;4995760;28;20170;-78
2020/12/21 04:06:21;;;;;;;45.53;24.50;;;;;;;;;;4995287;28;20185;-79
2020/12/21 04:08:47;;;;;;;54.97;31.20;;;;;;;;;;4995281;28;20269;-79
2020/12/21 04:11:12;;;;;;;44.80;24.73;;;;;;;;;;4995034;28;20625;-79
2020/12/21 04:13:38;;;;;;;42.90;24.63;;;;;;;;;;4995584;28;20700;-78
2020/12/21 04:16:03;;;;;;;71.80;34.50;;;;;;;;;;4995078;28;20209;-79
2020/12/21 04:18:28;;;;;;;62.37;32.57;;;;;;;;;;4994826;28;20174;-80
2020/12/21 04:20:53;;;;;;;83.37;40.10;;;;;;;;;;4994559;28;20170;-78
2020/12/21 04:23:19;;;;;;;51.43;28.23;;;;;;;;;;4994163;28;20194;-79
2020/12/21 04:25:44;;;;;;;57.53;30.07;;;;;;;;;;4994437;28;20174;-78
2020/12/21 04:28:09;;;;;;;51.10;25.83;;;;;;;;;;4994195;28;20232;-79
2020/12/21 04:30:35;;;;;;;53.80;27.63;;;;;;;;;;4994189;28;20181;-78
2020/12/21 04:33:00;;;;;;;54.80;28.87;;;;;;;;;;4994221;28;20180;-78
2020/12/21 04:35:25;;;;;;;55.67;28.77;;;;;;;;;;4994328;28;20212;-78
2020/12/21 04:37:51;;;;;;;48.93;24.33;;;;;;;;;;4994745;28;20205;-78
2020/12/21 04:40:17;;;;;;;47.60;23.87;;;;;;;;;;4994232;28;20613;-78
2020/12/21 04:42:47;;;;;;;44.50;24.90;;;;;;;;;;4994470;28;20224;-78
2020/12/21 04:45:12;;;;;;;50.93;26.73;;;;;;;;;;4994404;28;20201;-79
2020/12/21 04:47:38;;;;;;;47.27;27.03;;;;;;;;;;4994004;28;20632;-78
2020/12/21 04:50:03;;;;;;;42.97;24.67;;;;;;;;;;4993994;28;20174;-78
2020/12/21 04:52:30;;;;;;;46.93;25.53;;;;;;;;;;4994533;28;20908;-79
2020/12/21 04:54:55;;;;;;;44.43;24.10;;;;;;;;;;4994372;28;20722;-78
2020/12/21 04:57:20;;;;;;;51.73;28.23;;;;;;;;;;4993719;28;20182;-78
2020/12/21 04:59:46;;;;;;;52.07;29.40;;;;;;;;;;4993831;28;20649;-78
2020/12/21 05:02:12;;;;;;;44.43;24.07;;;;;;;;;;4994272;28;20761;-78
2020/12/21 05:04:37;;;;;;;47.00;25.97;;;;;;;;;;4994027;28;20194;-79
2020/12/21 05:07:02;;;;;;;71.97;39.50;;;;;;;;;;4993932;28;20229;-81
2020/12/21 05:09:28;;;;;;;47.37;26.50;;;;;;;;;;4993239;28;20182;-78
2020/12/21 05:11:57;;;;;;;42.20;23.83;;;;;;;;;;4994320;28;20176;-79
2020/12/21 05:14:30;;;;;;;54.10;26.47;;;;;;;;;;4994039;28;20280;-78
2020/12/21 05:16:55;;;;;;;58.80;29.80;;;;;;;;;;4993579;28;20629;-78
2020/12/21 05:19:24;;;;;;;49.17;27.13;;;;;;;;;;4992100;28;20201;-78
2020/12/21 05:21:53;;;;;;;50.73;26.63;;;;;;;;;;4993753;28;20174;-78
2020/12/21 05:24:20;;;;;;;57.37;28.90;;;;;;;;;;4993398;28;20205;-78
2020/12/21 05:26:45;;;;;;;62.60;33.70;;;;;;;;;;4993483;28;20197;-79
2020/12/21 05:29:10;;;;;;;61.40;33.57;;;;;;;;;;4993111;28;20178;-78
2020/12/21 05:31:36;;;;;;;88.87;40.47;;;;;;;;;;4993184;28;20174;-78
2020/12/21 05:34:01;;;;;;;121.37;54.70;;;;;;;;;;4993201;28;22604;-78
2020/12/21 05:36:30;;;;;;;130.43;56.60;;;;;;;;;;4993192;28;20652;-78
2020/12/21 05:39:02;;;;;;;100.90;45.33;;;;;;;;;;4992756;28;20553;-78
2020/12/21 05:41:27;;;;;;;100.37;46.83;;;;;;;;;;4993650;28;20178;-78
2020/12/21 05:43:53;;;;;;;68.87;35.20;;;;;;;;;;4993197;28;20280;-79
2020/12/21 05:46:19;;;;;;;74.10;36.90;;;;;;;;;;4993099;28;20176;-78
2020/12/21 05:48:46;;;;;;;79.30;38.97;;;;;;;;;;4993236;28;20252;-79
2020/12/21 05:51:19;;;;;;;76.93;38.23;;;;;;;;;;4993590;28;20178;-79
2020/12/21 05:53:44;;;;;;;68.03;34.13;;;;;;;;;;4993184;28;20185;-78
2020/12/21 05:56:11;;;;;;;57.90;31.90;;;;;;;;;;4992626;28;20178;-78
2020/12/21 05:58:37;;;;;;;58.40;31.23;;;;;;;;;;4993392;28;20262;-81
2020/12/21 06:01:04;;;;;;;60.93;30.40;;;;;;;;;;4993526;28;20682;-78
2020/12/21 06:03:49;;;;;;;73.03;35.00;;;;;;;;;;4992882;28;20251;-78
2020/12/21 06:06:14;;;;;;;67.73;33.17;;;;;;;;;;4992515;28;20621;-78
2020/12/21 06:08:40;;;;;;;59.07;27.63;;;;;;;;;;4992616;28;20180;-79
2020/12/21 06:11:10;;;;;;;56.93;27.80;;;;;;;;;;4992778;28;20178;-78
2020/12/21 06:13:36;;;;;;;61.43;32.90;;;;;;;;;;4992878;28;20242;-79
2020/12/21 06:16:02;;;;;;;63.60;32.13;;;;;;;;;;4991520;28;20202;-78
2020/12/21 06:18:27;;;;;;;68.87;32.10;;;;;;;;;;4992694;28;20338;-78
2020/12/21 06:20:53;;;;;;;77.07;36.03;;;;;;;;;;4992546;28;20170;-79
2020/12/21 06:23:28;;;;;;;68.47;34.40;;;;;;;;;;4992399;28;20193;-78
2020/12/21 06:25:53;;;;;;;90.63;41.53;;;;;;;;;;4992609;28;20158;-78
2020/12/21 06:28:27;;;;;;;88.07;40.50;;;;;;;;;;4992332;28;20510;-78
2020/12/21 06:30:52;;;;;;;96.97;44.97;;;;;;;;;;4992137;28;20628;-79
2020/12/21 06:33:18;;;;;;;81.30;37.67;;;;;;;;;;4991853;28;20182;-78
2020/12/21 06:35:43;;;;;;;112.70;47.60;;;;;;;;;;4991917;28;20518;-78
2020/12/21 06:38:08;;;;;;;112.17;49.90;;;;;;;;;;4991970;28;20178;-78
2020/12/21 06:40:35;;;;;;;87.77;44.17;;;;;;;;;;4991937;28;20172;-79
2020/12/21 06:43:10;;;;;;;103.73;46.80;;;;;;;;;;4991899;28;20248;-79
2020/12/21 06:45:35;;;;;;;87.70;42.07;;;;;;;;;;4992205;28;20170;-78
2020/12/21 06:48:01;;;;;;;60.47;30.27;;;;;;;;;;4992473;28;20531;-78
2020/12/21 06:50:26;;;;;;;74.17;35.87;;;;;;;;;;4991878;28;20587;-79
2020/12/21 06:52:52;;;;;;;71.43;35.23;;;;;;;;;;4991612;28;20232;-78
2020/12/21 06:55:17;;;;;;;75.27;36.33;;;;;;;;;;4991916;28;20193;-78
2020/12/21 06:57:50;;;;;;;72.63;36.50;;;;;;;;;;4992032;28;20723;-78
2020/12/21 07:00:15;;;;;;;66.00;31.97;;;;;;;;;;4991440;28;20233;-79
2020/12/21 07:02:40;;;;;;;67.87;34.17;;;;;;;;;;4992346;28;20194;-79
2020/12/21 07:05:09;;;;;;;65.93;33.17;;;;;;;;;;4991621;28;20185;-78
2020/12/21 07:07:34;;;;;;;68.70;35.10;;;;;;;;;;4997506;28;20173;-79
2020/12/21 07:09:59;;;;;;;59.57;28.60;;;;;;;;;;5012545;28;20648;-78
2020/12/21 07:12:25;;;;;;;61.17;32.60;;;;;;;;;;5011658;28;20597;-77
2020/12/21 07:14:50;;;;;;;68.73;31.60;;;;;;;;;;4992030;28;20216;-78
2020/12/21 07:17:16;;;;;;;59.37;30.90;;;;;;;;;;4992913;28;20205;-79
2020/12/21 07:19:44;;;;;;;54.63;28.03;;;;;;;;;;4993066;28;20217;-78
2020/12/21 07:22:11;;;;;;;55.23;28.20;;;;;;;;;;4992277;28;20170;-78
2020/12/21 07:24:38;;;;;;;55.70;30.77;;;;;;;;;;4991626;28;20241;-78
2020/12/21 07:27:03;;;;;;;62.90;32.57;;;;;;;;;;4990822;28;20304;-78
2020/12/21 07:29:35;;;;;;;56.37;30.77;;;;;;;;;;4991446;28;20619;-78
2020/12/21 07:32:00;;;;;;;65.90;36.00;;;;;;;;;;4991364;28;20232;-78
2020/12/21 07:34:27;;;;;;;64.40;33.07;;;;;;;;;;4991007;28;20675;-78
2020/12/21 07:36:52;;;;;;;55.30;28.70;;;;;;;;;;4991305;28;20208;-78
2020/12/21 07:39:18;;;;;;;54.13;28.23;;;;;;;;;;4991113;28;20265;-79
2020/12/21 07:41:48;;;;;;;60.17;31.30;;;;;;;;;;4991494;28;20174;-78
2020/12/21 07:44:19;;;;;;;63.30;33.17;;;;;;;;;;4991384;28;20173;-78
2020/12/21 07:46:45;;;;;;;60.67;30.77;;;;;;;;;;4991782;28;20205;-77
2020/12/21 07:49:11;;;;;;;60.77;31.63;;;;;;;;;;4991488;28;20521;-79
2020/12/21 07:51:38;;;;;;;61.37;31.57;;;;;;;;;;4991710;28;20200;-78
2020/12/21 07:54:04;;;;;;;62.90;32.30;;;;;;;;;;4991355;28;20162;-78
2020/12/21 07:56:29;;;;;;;70.13;33.30;;;;;;;;;;4991182;28;20184;-78
2020/12/21 07:58:54;;;;;;;63.23;34.27;;;;;;;;;;4991285;28;20187;-79
2020/12/21 08:01:23;;;;;;;55.17;30.87;;;;;;;;;;4991212;28;20292;-78
2020/12/21 08:03:50;;;;;;;60.83;31.37;;;;;;;;;;4991278;28;20178;-78
2020/12/21 08:06:18;;;;;;;55.20;26.90;;;;;;;;;;4991335;28;20189;-78
2020/12/21 08:08:44;;;;;;;52.03;27.63;;;;;;;;;;4991444;28;20182;-78
2020/12/21 08:11:13;;;;;;;60.47;31.50;;;;;;;;;;4989682;28;20178;-79
2020/12/21 08:13:40;;;;;;;55.00;28.97;;;;;;;;;;4998960;28;20192;-78
2020/12/21 08:16:09;;;;;;;49.83;26.60;;;;;;;;;;5010685;28;20287;-78
2020/12/21 08:18:35;;;;;;;56.87;29.63;;;;;;;;;;5010834;28;20178;-77
2020/12/21 08:21:00;;;;;;;58.93;30.60;;;;;;;;;;5010631;28;20172;-77
2020/12/21 08:23:26;;;;;;;78.93;43.70;;;;;;;;;;5010575;28;20173;-77
2020/12/21 08:25:52;;;;;;;55.10;29.97;;;;;;;;;;5010286;28;20574;-78
2020/12/21 08:28:24;;;;;;;48.83;27.37;;;;;;;;;;5010512;28;20177;-78
2020/12/21 08:30:49;;;;;;;47.53;27.70;;;;;;;;;;5010614;28;20177;-78
2020/12/21 08:33:15;;;;;;;53.37;30.33;;;;;;;;;;5010461;28;20707;-78
2020/12/21 08:35:40;;;;;;;115.27;45.50;;;;;;;;;;5010131;28;20546;-78
2020/12/21 08:38:06;;;;;;;88.67;44.03;;;;;;;;;;5010127;28;20502;-78
2020/12/21 08:40:31;;;;;;;51.37;28.27;;;;;;;;;;5003618;28;20186;-79
2020/12/21 08:42:58;;;;;;;54.47;29.20;;;;;;;;;;4977194;28;20209;-78
2020/12/21 08:45:24;;;;;;;64.53;33.90;;;;;;;;;;4994768;28;20238;-78
2020/12/21 08:47:49;;;;;;;66.30;36.17;;;;;;;;;;4995768;28;20173;-78
2020/12/21 08:50:14;;;;;;;66.27;35.53;;;;;;;;;;4995446;28;20184;-79
2020/12/21 08:52:40;;;;;;;56.00;30.30;;;;;;;;;;4995778;28;20216;-78
2020/12/21 08:55:08;;;;;;;73.43;39.33;;;;;;;;;;4995585;28;20259;-78
2020/12/21 08:57:34;;;;;;;60.10;32.73;;;;;;;;;;4995137;28;20204;-78
2020/12/21 08:59:59;;;;;;;55.47;30.60;;;;;;;;;;4995076;28;20544;-78
2020/12/21 09:02:25;;;;;;;45.80;26.20;;;;;;;;;;4995205;28;20190;-78
2020/12/21 09:04:50;;;;;;;49.47;28.30;;;;;;;;;;4996649;28;20172;-77
2020/12/21 09:07:15;;;;;;;47.07;26.70;;;;;;;;;;4997513;28;20174;-78
2020/12/21 09:09:41;;;;;;;47.17;26.73;;;;;;;;;;4997710;28;20180;-77
2020/12/21 09:12:06;;;;;;;49.03;27.90;;;;;;;;;;4997270;28;20507;-77
2020/12/21 09:14:32;;;;;;;52.80;28.97;;;;;;;;;;4994201;28;20206;-77
2020/12/21 09:16:57;;;;;;;58.43;30.67;;;;;;;;;;4996936;28;20527;-77
2020/12/21 09:19:22;;;;;;;50.90;27.53;;;;;;;;;;4996634;28;20202;-78
2020/12/21 09:21:48;;;;;;;48.57;28.10;;;;;;;;;;4998754;28;20166;-78
2020/12/21 09:24:13;;;;;;;54.93;30.20;;;;;;;;;;4996856;28;20217;-77
2020/12/21 09:26:39;;;;;;;56.10;31.50;;;;;;;;;;4996396;28;20166;-78
2020/12/21 09:29:04;;;;;;;53.90;31.10;;;;;;;;;;4996465;28;20174;-77
2020/12/21 09:31:30;;;;;;;50.40;29.63;;;;;;;;;;4996553;28;20174;-77
2020/12/21 09:33:55;;;;;;;62.57;35.20;;;;;;;;;;4994540;28;20178;-77
2020/12/21 09:36:20;;;;;;;58.30;32.80;;;;;;;;;;4995228;28;20186;-77
2020/12/21 09:38:47;;;;;;;56.70;34.13;;;;;;;;;;4996074;28;20697;-78
2020/12/21 09:41:17;;;;;;;54.43;33.13;;;;;;;;;;4996117;28;20209;-78
2020/12/21 09:43:44;;;;;;;52.10;31.63;;;;;;;;;;4995926;28;20521;-77
2020/12/21 09:46:09;;;;;;;63.40;35.27;;;;;;;;;;4996210;28;20707;-78
2020/12/21 09:48:36;;;;;;;52.73;30.70;;;;;;;;;;4996222;28;20262;-78
2020/12/21 09:51:01;;;;;;;60.27;33.87;;;;;;;;;;4995679;28;20173;-78
2020/12/21 09:53:26;;;;;;;54.27;31.30;;;;;;;;;;4996260;28;20512;-77
2020/12/21 09:55:52;;;;;;;57.07;32.17;;;;;;;;;;4995626;28;20623;-78
2020/12/21 09:58:18;;;;;;;59.97;33.40;;;;;;;;;;4995688;28;20182;-77
2020/12/21 10:00:43;;;;;;;63.37;33.20;;;;;;;;;;4995953;28;20382;-77
2020/12/21 10:03:08;;;;;;;67.87;33.80;;;;;;;;;;4996013;28;20200;-78
2020/12/21 10:05:34;;;;;;;66.40;34.97;;;;;;;;;;4995544;28;20228;-78
2020/12/21 10:07:59;;;;;;;65.37;35.17;;;;;;;;;;4995470;28;20568;-77
2020/12/21 10:10:24;;;;;;;74.50;40.20;;;;;;;;;;4997656;28;20542;-77
2020/12/21 10:12:50;;;;;;;68.20;34.83;;;;;;;;;;5006084;28;20610;-78
2020/12/21 10:15:15;;;;;;;67.93;36.90;;;;;;;;;;5005316;28;20251;-78
2020/12/21 10:17:40;;;;;;;57.33;33.27;;;;;;;;;;4995294;28;20581;-77
2020/12/21 10:20:06;;;;;;;53.17;31.67;;;;;;;;;;4995243;28;20170;-77
2020/12/21 10:22:31;;;;;;;53.13;31.93;;;;;;;;;;4995746;28;20252;-78
2020/12/21 10:24:56;;;;;;;54.23;32.83;;;;;;;;;;4995495;28;20551;-77
2020/12/21 10:27:22;;;;;;;50.90;30.20;;;;;;;;;;4996325;28;20271;-77
2020/12/21 10:29:49;;;;;;;49.40;29.13;;;;;;;;;;4995325;28;20273;-77
2020/12/21 10:32:14;;;;;;;56.50;32.90;;;;;;;;;;4995199;28;20562;-77
2020/12/21 10:34:40;;;;;;;50.53;28.73;;;;;;;;;;4995378;28;20193;-77
2020/12/21 10:37:05;;;;;;;51.30;30.47;;;;;;;;;;4995522;28;20177;-77
2020/12/21 10:39:30;;;;;;;50.77;27.87;;;;;;;;;;4995466;28;20177;-78
2020/12/21 10:41:56;;;;;;;44.67;25.57;;;;;;;;;;4995380;28;20636;-78
2020/12/21 10:44:21;;;;;;;47.07;26.70;;;;;;;;;;4994704;28;20240;-78
2020/12/21 10:46:46;;;;;;;56.80;32.33;;;;;;;;;;4994758;28;20213;-78
2020/12/21 10:49:12;;;;;;;53.83;30.23;;;;;;;;;;4993682;28;20166;-79
2020/12/21 10:51:37;;;;;;;49.77;29.10;;;;;;;;;;4993420;28;20166;-78
2020/12/21 10:54:03;;;;;;;46.70;26.60;;;;;;;;;;4993131;28;20181;-78
2020/12/21 10:56:29;;;;;;;58.47;31.73;;;;;;;;;;4993655;28;20200;-78
2020/12/21 10:58:55;;;;;;;54.00;30.50;;;;;;;;;;4993498;28;20178;-78
2020/12/21 11:01:20;;;;;;;58.60;32.13;;;;;;;;;;4993541;28;20279;-79
2020/12/21 11:03:46;;;;;;;56.40;31.03;;;;;;;;;;4992931;28;20181;-78
2020/12/21 11:06:11;;;;;;;46.40;28.60;;;;;;;;;;4993353;28;20185;-79
2020/12/21 11:08:37;;;;;;;50.30;29.90;;;;;;;;;;4993335;28;20182;-77
2020/12/21 11:11:03;;;;;;;50.27;29.87;;;;;;;;;;4993040;28;20587;-78
2020/12/21 11:13:28;;;;;;;54.83;31.97;;;;;;;;;;4993318;28;20174;-78
2020/12/21 11:15:54;;;;;;;56.63;34.57;;;;;;;;;;4992777;28;20213;-78
2020/12/21 11:18:19;;;;;;;60.80;35.27;;;;;;;;;;4993285;28;20186;-78
2020/12/21 11:20:59;;;;;;;59.73;34.80;;;;;;;;;;4991519;28;20190;-78
2020/12/21 11:23:25;;;;;;;52.23;32.43;;;;;;;;;;4991059;28;20255;-80
2020/12/21 11:25:51;;;;;;;53.87;30.77;;;;;;;;;;4992039;28;20244;-78
2020/12/21 11:28:16;;;;;;;44.57;27.17;;;;;;;;;;4992556;28;20185;-79
2020/12/21 11:30:42;;;;;;;43.93;27.23;;;;;;;;;;4992548;28;20520;-78
2020/12/21 11:33:07;;;;;;;47.00;30.10;;;;;;;;;;4993029;28;20169;-78
2020/12/21 11:35:32;;;;;;;56.47;32.17;;;;;;;;;;4992674;28;20547;-79
2020/12/21 11:37:58;;;;;;;44.30;27.27;;;;;;;;;;4993066;28;20267;-79
2020/12/21 11:40:23;;;;;;;44.27;26.83;;;;;;;;;;4993003;28;20667;-78
2020/12/21 11:42:48;;;;;;;68.40;37.90;;;;;;;;;;4992960;28;20169;-78
2020/12/21 11:45:14;;;;;;;51.10;31.30;;;;;;;;;;4992613;28;20576;-78
2020/12/21 11:47:39;;;;;;;56.87;33.50;;;;;;;;;;4993139;28;20621;-78
2020/12/21 11:50:05;;;;;;;61.20;35.13;;;;;;;;;;4992854;28;20170;-78
2020/12/21 11:52:31;;;;;;;53.47;31.17;;;;;;;;;;4992299;28;20181;-79
2020/12/21 11:54:56;;;;;;;55.23;34.43;;;;;;;;;;4992749;28;20229;-78
2020/12/21 11:57:22;;;;;;;57.60;34.33;;;;;;;;;;4992519;28;20213;-78
2020/12/21 11:59:47;;;;;;;54.83;34.83;;;;;;;;;;4992292;28;20229;-78
2020/12/21 12:02:13;;;;;;;60.47;36.17;;;;;;;;;;4992739;28;20232;-78
2020/12/21 12:04:38;;;;;;;63.17;34.77;;;;;;;;;;4992482;28;20182;-77
2020/12/21 12:07:04;;;;;;;68.97;37.83;;;;;;;;;;4993119;28;20177;-78
2020/12/21 12:09:29;;;;;;;56.27;32.73;;;;;;;;;;4992901;28;20170;-78
2020/12/21 12:11:55;;;;;;;62.53;35.03;;;;;;;;;;4992929;28;20313;-78
2020/12/21 12:14:20;;;;;;;55.10;32.13;;;;;;;;;;4993398;28;20232;-78
2020/12/21 12:16:47;;;;;;;60.10;32.93;;;;;;;;;;4996247;28;20251;-78
2020/12/21 12:19:12;;;;;;;55.90;34.47;;;;;;;;;;4996677;28;20204;-79
2020/12/21 12:21:38;;;;;;;53.43;31.30;;;;;;;;;;4996358;28;20628;-79
2020/12/21 12:24:03;;;;;;;51.37;30.60;;;;;;;;;;4996576;28;20174;-78
2020/12/21 12:26:28;;;;;;;52.17;32.27;;;;;;;;;;4996030;28;20205;-78
2020/12/21 12:28:54;;;;;;;54.23;32.60;;;;;;;;;;4996007;28;20181;-78
2020/12/21 12:31:20;;;;;;;54.70;31.60;;;;;;;;;;4996534;28;20182;-78
2020/12/21 12:33:45;;;;;;;53.40;32.77;;;;;;;;;;4995779;28;20182;-79
2020/12/21 12:36:17;;;;;;;55.40;32.33;;;;;;;;;;4995841;28;20372;-79
2020/12/21 12:38:42;;;;;;;52.90;32.23;;;;;;;;;;4995883;28;20267;-78
2020/12/21 12:41:08;;;;;;;73.17;40.30;;;;;;;;;;4996001;28;20293;-78
2020/12/21 12:43:33;;;;;;;64.90;36.37;;;;;;;;;;4995720;28;20720;-78
2020/12/21 12:46:00;;;;;;;65.93;38.97;;;;;;;;;;4995602;28;20272;-78
2020/12/21 12:48:26;;;;;;;64.63;35.57;;;;;;;;;;4996127;28;20170;-79
2020/12/21 12:50:51;;;;;;;64.43;35.10;;;;;;;;;;4995883;28;20687;-78
2020/12/21 12:53:16;;;;;;;63.87;37.77;;;;;;;;;;4995684;28;20252;-79
2020/12/21 12:55:42;;;;;;;59.37;35.37;;;;;;;;;;4995413;28;20260;-78
2020/12/21 12:58:07;;;;;;;73.50;43.00;;;;;;;;;;4995497;28;20190;-78
2020/12/21 13:00:33;;;;;;;82.63;47.30;;;;;;;;;;4995436;28;20257;-78
2020/12/21 13:02:58;;;;;;;96.73;56.97;;;;;;;;;;4995614;28;20712;-79
2020/12/21 13:05:24;;;;;;;81.90;46.07;;;;;;;;;;4995312;28;20182;-78
2020/12/21 13:07:49;;;;;;;80.20;47.07;;;;;;;;;;4995107;28;20186;-78
2020/12/21 13:10:14;;;;;;;80.50;47.73;;;;;;;;;;4995518;28;20205;-78
2020/12/21 13:12:40;;;;;;;71.90;41.00;;;;;;;;;;4995714;28;20242;-78
2020/12/21 13:15:05;;;;;;;85.30;48.97;;;;;;;;;;4995084;28;20198;-77
2020/12/21 13:17:30;;;;;;;85.37;46.43;;;;;;;;;;4995133;28;20341;-78
2020/12/21 13:19:56;;;;;;;82.63;48.20;;;;;;;;;;4995383;28;20170;-78
2020/12/21 13:22:21;;;;;;;89.90;51.33;;;;;;;;;;4995242;28;20563;-78
2020/12/21 13:24:47;;;;;;;88.20;49.13;;;;;;;;;;4994961;28;20639;-77
2020/12/21 13:27:12;;;;;;;67.80;40.97;;;;;;;;;;4994864;28;20222;-78
2020/12/21 13:29:38;;;;;;;75.50;43.40;;;;;;;;;;4994850;28;20621;-78
2020/12/21 13:32:03;;;;;;;74.90;43.40;;;;;;;;;;4994853;28;20248;-78
2020/12/21 13:34:28;;;;;;;104.67;54.43;;;;;;;;;;4994883;28;20284;-78
2020/12/21 13:36:54;;;;;;;116.97;58.53;;;;;;;;;;4994839;28;20185;-78
2020/12/21 13:39:20;;;;;;;223.23;104.10;;;;;;;;;;4994630;28;20178;-77
2020/12/21 13:41:45;;;;;;;358.10;151.50;;;;;;;;;;4995258;28;20185;-78
2020/12/21 13:44:10;;;;;;;105.60;56.57;;;;;;;;;;4995122;28;20258;-78
2020/12/21 13:46:36;;;;;;;251.00;129.87;;;;;;;;;;4994951;28;20174;-77
2020/12/21 13:49:01;;;;;;;79.97;44.80;;;;;;;;;;4994580;28;20633;-78
2020/12/21 13:51:27;;;;;;;95.63;54.80;;;;;;;;;;4977298;28;20626;-78
2020/12/21 13:53:52;;;;;;;116.57;67.30;;;;;;;;;;4994944;28;20174;-78
2020/12/21 13:56:17;;;;;;;95.83;55.00;;;;;;;;;;4994365;28;20264;-78
2020/12/21 13:58:43;;;;;;;105.20;58.23;;;;;;;;;;4994294;28;20261;-78
2020/12/21 14:01:08;;;;;;;91.87;49.40;;;;;;;;;;4994150;28;20245;-78
2020/12/21 14:03:33;;;;;;;80.30;46.90;;;;;;;;;;4994372;28;20636;-79
2020/12/21 14:05:59;;;;;;;79.00;46.43;;;;;;;;;;4993885;28;20584;-78
2020/12/21 14:08:24;;;;;;;93.90;52.70;;;;;;;;;;4993972;28;20181;-78